Time;durP1;ratioP1;P1;durP2;ratioP2;P2;SDS_P1;SDS_P2;PMS_P1;PMS_P2;Temp;Humidity;BMP_temperature;BMP_pressure;BME280_temperature;BME280_humidity;BME280_pressure;Samples;Min_cycle;Max_cycle;Signal;HPM_P1;HPM_P2
2021/01/10 00:00:15;;;;;;;38.92;20.27;;;;;;;-0.81;75.75;98078.09;5083490;27;45641;-77
2021/01/10 00:02:41;;;;;;;35.55;18.63;;;;;;;-0.82;74.47;98069.44;5100530;27;45261;-77
2021/01/10 00:05:28;;;;;;;35.45;18.80;;;;;;;-0.82;74.88;98065.97;5100447;27;45296;-76
2021/01/10 00:07:56;;;;;;;40.17;19.90;;;;;;;-0.80;74.31;98061.50;5087569;27;45309;-76
2021/01/10 00:10:22;;;;;;;36.97;19.17;;;;;;;-0.83;73.75;98062.53;5100400;27;45478;-77
2021/01/10 00:12:47;;;;;;;34.63;18.00;;;;;;;-0.88;73.90;98054.13;5100278;27;45429;-76
2021/01/10 00:15:15;;;;;;;35.15;18.17;;;;;;;-0.86;75.06;98047.03;5100024;27;45407;-77
2021/01/10 00:17:43;;;;;;;40.90;21.73;;;;;;;-0.82;74.06;98045.09;5100661;27;45419;-76
2021/01/10 00:20:10;;;;;;;41.75;22.70;;;;;;;-0.83;73.46;98049.47;5100199;27;45258;-76
2021/01/10 00:22:35;;;;;;;41.33;22.63;;;;;;;-0.83;73.95;98054.69;5100290;27;46034;-77
2021/01/10 00:25:01;;;;;;;42.28;22.30;;;;;;;-0.91;73.54;98049.91;5100045;27;45350;-77
2021/01/10 00:27:27;;;;;;;37.72;20.95;;;;;;;-0.95;75.31;98063.22;5100410;27;45375;-76
2021/01/10 00:29:52;;;;;;;44.45;23.60;;;;;;;-0.92;74.94;98063.03;5099985;27;45470;-76
2021/01/10 00:32:18;;;;;;;47.00;23.20;;;;;;;-1.06;75.92;98064.66;5099645;27;45443;-77
2021/01/10 00:34:44;;;;;;;52.88;25.83;;;;;;;-1.01;75.64;98068.78;5098654;27;45544;-77
2021/01/10 00:37:18;;;;;;;48.28;25.00;;;;;;;-0.93;75.44;98058.75;5100146;27;45313;-76
2021/01/10 00:39:44;;;;;;;51.38;26.33;;;;;;;-0.92;74.73;98056.06;5099964;27;45297;-77
2021/01/10 00:42:12;;;;;;;46.80;23.73;;;;;;;-0.91;74.23;98044.69;5099984;27;46025;-77
2021/01/10 00:44:38;;;;;;;44.40;22.50;;;;;;;-0.97;73.86;98045.03;5099783;27;45432;-76
2021/01/10 00:47:04;;;;;;;40.45;21.73;;;;;;;-1.00;73.97;98046.97;5098485;27;45302;-76
2021/01/10 00:49:30;;;;;;;42.53;22.92;;;;;;;-1.02;74.91;98052.31;5099716;27;45368;-76
2021/01/10 00:51:55;;;;;;;42.25;22.55;;;;;;;-1.00;74.00;98047.81;5099676;27;45463;-77
2021/01/10 00:54:21;;;;;;;44.75;22.85;;;;;;;-1.38;76.54;98062.13;5099707;27;45351;-76
2021/01/10 00:56:47;;;;;;;46.33;23.75;;;;;;;-1.08;75.46;98055.25;5099815;27;45456;-76
2021/01/10 00:59:13;;;;;;;44.53;23.95;;;;;;;-0.98;75.38;98061.63;5090164;27;45340;-77
2021/01/10 01:01:38;;;;;;;48.70;24.92;;;;;;;-1.04;75.35;98062.00;5099031;27;47075;-76
2021/01/10 01:04:04;;;;;;;43.97;23.80;;;;;;;-0.89;75.03;98058.50;5099347;27;45462;-76
2021/01/10 01:06:30;;;;;;;42.50;23.48;;;;;;;-1.03;74.25;98055.84;5098501;27;45301;-76
2021/01/10 01:08:55;;;;;;;41.22;22.85;;;;;;;-0.99;74.11;98057.34;5099641;27;45302;-76
2021/01/10 01:11:31;;;;;;;48.15;23.90;;;;;;;-0.94;74.40;98055.31;5099491;27;45211;-76
2021/01/10 01:13:57;;;;;;;50.97;25.92;;;;;;;-0.91;73.74;98051.66;5099359;27;45284;-76
2021/01/10 01:16:23;;;;;;;42.05;22.60;;;;;;;-0.93;73.70;98054.38;5099352;27;45174;-76
2021/01/10 01:18:49;;;;;;;42.95;22.92;;;;;;;-0.94;74.29;98055.31;5099336;27;45330;-77
2021/01/10 01:21:19;;;;;;;44.35;24.08;;;;;;;-1.26;76.82;98065.81;5099354;27;46077;-76
2021/01/10 01:23:44;;;;;;;45.42;23.50;;;;;;;-1.61;78.42;98071.19;5099218;27;45379;-76
2021/01/10 01:26:17;;;;;;;45.22;23.77;;;;;;;-1.49;77.46;98070.53;5099458;27;45527;-76
2021/01/10 01:28:43;;;;;;;37.45;21.02;;;;;;;-1.88;78.65;98074.38;5098969;27;45379;-76
2021/01/10 01:31:23;;;;;;;42.08;23.38;;;;;;;-1.64;79.29;98077.44;5098524;27;45842;-76
2021/01/10 01:33:49;;;;;;;47.13;23.42;;;;;;;-1.75;80.05;98074.56;5086473;27;45442;-77
2021/01/10 01:36:24;;;;;;;41.75;22.35;;;;;;;-1.88;80.63;98081.34;5099173;27;45587;-77
2021/01/10 01:38:52;;;;;;;39.78;21.50;;;;;;;-1.76;80.08;98081.53;5099296;27;45234;-77
2021/01/10 01:41:19;;;;;;;40.97;22.52;;;;;;;-1.52;78.96;98088.94;5098976;27;46154;-76
2021/01/10 01:43:45;;;;;;;45.25;23.52;;;;;;;-1.66;78.81;98089.72;5098716;27;45360;-77
2021/01/10 01:46:15;;;;;;;45.85;23.20;;;;;;;-1.71;80.20;98089.13;5098803;27;45468;-76
2021/01/10 01:48:42;;;;;;;45.58;23.85;;;;;;;-1.83;80.53;98085.41;5099044;27;45414;-77
2021/01/10 01:51:08;;;;;;;43.10;24.02;;;;;;;-1.95;81.84;98089.50;5098612;27;45915;-77
2021/01/10 01:53:34;;;;;;;43.78;23.85;;;;;;;-1.58;79.64;98089.28;5099155;27;45343;-76
2021/01/10 01:55:59;;;;;;;44.42;23.65;;;;;;;-1.47;79.28;98086.09;5098813;27;45265;-77
2021/01/10 01:58:26;;;;;;;44.90;22.63;;;;;;;-1.36;77.29;98095.94;5097327;27;45339;-77
2021/01/10 02:00:52;;;;;;;41.35;22.58;;;;;;;-1.20;76.36;98106.38;5090668;27;45481;-77
2021/01/10 02:03:54;;;;;;;42.78;23.15;;;;;;;-1.50;80.44;98099.31;5098771;27;45364;-77
2021/01/10 02:06:25;;;;;;;42.38;23.42;;;;;;;-1.63;80.82;98104.34;5086025;27;45481;-77
2021/01/10 02:08:57;;;;;;;40.10;21.45;;;;;;;-1.30;78.22;98111.28;5098714;27;45515;-76
2021/01/10 02:11:26;;;;;;;42.22;23.17;;;;;;;-1.31;78.02;98122.66;5098562;27;45261;-77
2021/01/10 02:13:53;;;;;;;39.28;21.63;;;;;;;-1.95;80.93;98127.78;5098409;27;45359;-77
2021/01/10 02:16:19;;;;;;;41.90;22.33;;;;;;;-2.20;81.72;98127.28;5098507;27;45261;-76
2021/01/10 02:18:45;;;;;;;43.30;22.27;;;;;;;-2.01;81.43;98125.50;5097228;27;45340;-77
2021/01/10 02:21:12;;;;;;;41.53;22.20;;;;;;;-1.59;79.01;98131.13;5098549;27;45438;-76
2021/01/10 02:23:40;;;;;;;38.17;21.58;;;;;;;-1.37;77.90;98131.63;5098232;27;45361;-77
2021/01/10 02:26:06;;;;;;;41.40;21.80;;;;;;;-1.95;81.24;98127.78;5098630;27;45610;-76
2021/01/10 02:28:33;;;;;;;41.05;21.80;;;;;;;-2.09;81.70;98129.34;5098117;27;45292;-77
2021/01/10 02:31:04;;;;;;;39.38;22.13;;;;;;;-2.11;82.46;98120.75;5097767;27;46081;-76
2021/01/10 02:33:41;;;;;;;37.28;21.50;;;;;;;-2.01;82.32;98126.31;5096914;27;45256;-76
2021/01/10 02:36:14;;;;;;;40.13;22.35;;;;;;;-2.04;82.46;98116.03;5098355;27;45374;-77
2021/01/10 02:39:03;;;;;;;40.45;22.08;;;;;;;-1.65;79.22;98106.19;5098446;27;45296;-76
2021/01/10 02:42:07;;;;;;;41.13;22.80;;;;;;;-1.67;80.18;98108.06;5098063;27;46219;-77
2021/01/10 02:44:39;;;;;;;37.30;21.60;;;;;;;-1.66;80.15;98100.16;5054921;28;45575;-77
2021/01/10 02:47:06;;;;;;;40.00;23.75;;;;;;;-1.41;78.94;98108.41;5055239;28;45318;-76
2021/01/10 02:49:33;;;;;;;39.83;22.67;;;;;;;-1.29;77.71;98109.50;5077007;27;45460;-76
2021/01/10 02:51:58;;;;;;;41.08;23.45;;;;;;;-2.02;80.65;98105.56;5097951;27;45410;-77
2021/01/10 02:54:24;;;;;;;42.13;23.73;;;;;;;-1.58;78.90;98102.34;5097998;27;45453;-77
2021/01/10 02:56:57;;;;;;;43.05;23.17;;;;;;;-1.70;80.36;98089.97;5098094;27;45327;-76
2021/01/10 02:59:26;;;;;;;43.15;22.58;;;;;;;-1.97;81.44;98091.34;5086327;27;45681;-77
2021/01/10 03:01:56;;;;;;;41.47;22.30;;;;;;;-2.00;83.21;98090.69;5094287;27;45509;-76
2021/01/10 03:04:23;;;;;;;43.35;23.40;;;;;;;-1.44;79.37;98082.47;5097626;27;45556;-77
2021/01/10 03:06:52;;;;;;;46.13;24.08;;;;;;;-1.25;77.71;98080.56;5097410;27;45416;-77
2021/01/10 03:09:18;;;;;;;54.13;26.83;;;;;;;-1.21;77.06;98076.84;5097808;27;45498;-77
2021/01/10 03:11:44;;;;;;;50.75;23.65;;;;;;;-1.37;78.59;98074.22;5097797;27;45272;-76
2021/01/10 03:14:09;;;;;;;43.30;21.98;;;;;;;-1.42;79.01;98076.25;5097516;27;45233;-77
2021/01/10 03:16:36;;;;;;;41.65;22.35;;;;;;;-1.49;79.95;98072.31;5097805;27;45304;-77
2021/01/10 03:19:02;;;;;;;40.95;22.58;;;;;;;-1.42;79.24;98071.03;5096306;27;45414;-77
2021/01/10 03:21:28;;;;;;;42.90;23.98;;;;;;;-1.34;78.37;98068.00;5097764;27;46094;-77
2021/01/10 03:23:54;;;;;;;40.30;22.35;;;;;;;-1.22;76.82;98064.72;5097596;27;45327;-77
2021/01/10 03:26:20;;;;;;;45.75;24.00;;;;;;;-1.26;76.96;98064.97;5097987;27;45303;-77
2021/01/10 03:28:46;;;;;;;39.35;22.45;;;;;;;-1.26;77.42;98070.19;5097543;27;45289;-76
2021/01/10 03:31:11;;;;;;;35.78;21.15;;;;;;;-1.22;77.14;98061.25;5100580;27;45484;-77
2021/01/10 03:33:38;;;;;;;43.35;22.05;;;;;;;-1.16;76.37;98057.47;5101084;27;45252;-77
2021/01/10 03:36:04;;;;;;;58.78;27.25;;;;;;;-1.15;76.14;98052.16;5101017;27;45420;-77
2021/01/10 03:38:29;;;;;;;73.03;30.60;;;;;;;-1.25;76.73;98051.00;5101278;27;45343;-77
2021/01/10 03:40:55;;;;;;;56.47;25.35;;;;;;;-1.23;76.60;98052.59;5100782;27;46099;-76
2021/01/10 03:43:20;;;;;;;56.92;27.05;;;;;;;-1.22;76.04;98058.66;5100830;27;45546;-77
2021/01/10 03:45:46;;;;;;;55.55;26.90;;;;;;;-1.38;77.62;98054.28;5099327;27;45407;-77
2021/01/10 03:48:11;;;;;;;46.03;23.80;;;;;;;-1.23;76.90;98054.34;5100976;27;45300;-77
2021/01/10 03:50:37;;;;;;;39.83;22.48;;;;;;;-1.38;78.13;98038.63;5100608;27;46192;-77
2021/01/10 03:53:02;;;;;;;41.40;22.73;;;;;;;-1.32;77.58;98043.50;5100942;27;45356;-77
2021/01/10 03:55:28;;;;;;;41.28;22.55;;;;;;;-1.28;77.52;98036.34;5101007;27;45333;-77
2021/01/10 03:57:53;;;;;;;51.20;26.60;;;;;;;-1.35;78.22;98042.81;5100672;27;45551;-77
2021/01/10 04:00:19;;;;;;;40.78;23.50;;;;;;;-1.62;79.56;98049.50;5092508;27;45416;-77
2021/01/10 04:02:44;;;;;;;41.55;22.42;;;;;;;-1.35;78.56;98045.44;5100611;27;45471;-76
2021/01/10 04:05:09;;;;;;;40.50;22.13;;;;;;;-1.23;77.36;98046.53;5100541;27;45490;-77
2021/01/10 04:07:35;;;;;;;41.15;22.52;;;;;;;-1.22;76.62;98049.06;5099934;27;45399;-77
2021/01/10 04:10:00;;;;;;;43.63;22.83;;;;;;;-1.24;77.64;98047.44;5100357;27;45326;-77
2021/01/10 04:12:26;;;;;;;41.20;22.13;;;;;;;-1.38;76.82;98043.00;5100324;27;45352;-77
2021/01/10 04:14:57;;;;;;;36.95;20.88;;;;;;;-1.34;77.15;98036.69;5099021;27;45284;-77
2021/01/10 04:17:25;;;;;;;39.15;21.08;;;;;;;-1.52;78.95;98041.19;5100313;27;45314;-77
2021/01/10 04:19:55;;;;;;;36.95;20.42;;;;;;;-1.71;78.38;98031.75;5100277;27;45271;-77
2021/01/10 04:22:21;;;;;;;38.43;20.50;;;;;;;-1.60;78.31;98038.16;5100151;27;45509;-77
2021/01/10 04:24:47;;;;;;;37.00;21.08;;;;;;;-1.60;77.55;98038.97;5100359;27;46186;-77
2021/01/10 04:27:12;;;;;;;36.25;18.98;;;;;;;-1.72;78.85;98032.69;5100028;27;45329;-77
2021/01/10 04:29:38;;;;;;;33.08;19.77;;;;;;;-1.52;77.44;98025.53;5100118;27;45338;-77
2021/01/10 04:32:03;;;;;;;34.10;19.98;;;;;;;-1.29;76.44;98023.38;5099588;27;45391;-77
2021/01/10 04:34:29;;;;;;;33.92;19.42;;;;;;;-1.33;75.52;98022.69;5100285;27;45416;-77
2021/01/10 04:36:54;;;;;;;32.70;18.23;;;;;;;-1.35;75.57;98027.16;5099999;27;45541;-76
2021/01/10 04:39:20;;;;;;;29.73;17.42;;;;;;;-1.34;75.23;98021.03;5099972;27;45340;-76
2021/01/10 04:41:45;;;;;;;31.33;17.13;;;;;;;-1.30;74.32;98012.13;5097554;27;45343;-77
2021/01/10 04:44:15;;;;;;;33.00;16.80;;;;;;;-1.39;73.35;98015.22;5099825;27;45297;-77
2021/01/10 04:46:41;;;;;;;26.15;15.18;;;;;;;-1.44;72.77;98007.69;5086729;27;46067;-77
2021/01/10 04:49:07;;;;;;;28.38;15.70;;;;;;;-1.53;72.87;98005.59;5099790;27;46002;-77
2021/01/10 04:51:36;;;;;;;25.00;14.88;;;;;;;-1.57;72.78;98004.06;5099846;27;45493;-76
2021/01/10 04:54:02;;;;;;;28.13;15.88;;;;;;;-1.64;72.13;98006.16;5100032;27;45154;-77
2021/01/10 04:56:30;;;;;;;29.08;16.20;;;;;;;-1.59;72.32;98001.53;5099982;27;45332;-76
2021/01/10 04:59:04;;;;;;;29.10;16.65;;;;;;;-1.58;72.25;98000.63;5099428;27;45536;-76
2021/01/10 05:01:35;;;;;;;27.80;15.50;;;;;;;-1.66;71.36;97997.59;5092823;27;45493;-77
2021/01/10 05:04:00;;;;;;;;;;;;;;;-1.62;71.98;97992.13;5099938;27;45307;-78
2021/01/10 05:06:26;;;;;;;25.70;14.63;;;;;;;-1.68;71.04;97989.88;5099219;27;45364;-77
2021/01/10 05:08:53;;;;;;;29.33;15.57;;;;;;;-1.79;72.35;97987.00;5099361;27;45259;-77
2021/01/10 05:11:19;;;;;;;27.42;15.60;;;;;;;-1.92;73.39;97994.66;5099624;27;45283;-77
2021/01/10 05:13:44;;;;;;;28.17;15.50;;;;;;;-1.84;72.93;97992.47;5099408;27;45585;-78
2021/01/10 05:16:17;;;;;;;26.65;15.50;;;;;;;-1.71;71.86;97992.66;5099419;27;45259;-77
2021/01/10 05:18:53;;;;;;;25.77;14.60;;;;;;;-1.73;72.11;97998.84;5099334;27;46068;-77
2021/01/10 05:21:21;;;;;;;25.98;15.70;;;;;;;-1.71;72.21;98000.47;5099458;27;45267;-77
2021/01/10 05:23:55;;;;;;;25.70;15.50;;;;;;;-1.69;70.77;97996.00;5099307;27;45603;-77
2021/01/10 05:26:21;;;;;;;27.67;16.15;;;;;;;-1.69;70.77;98002.97;5098070;27;45573;-77
2021/01/10 05:28:51;;;;;;;25.65;14.65;;;;;;;-1.68;70.57;98004.66;5085481;27;46171;-77
2021/01/10 05:31:45;;;;;;;26.48;15.07;;;;;;;-1.79;69.79;98011.31;5098528;27;45171;-77
2021/01/10 05:34:16;;;;;;;28.20;14.43;;;;;;;-1.70;70.88;98009.13;5097972;27;45240;-77
2021/01/10 05:36:42;;;;;;;;;;;;;;;-1.73;71.04;98010.16;5099437;27;45410;-77
2021/01/10 05:39:24;;;;;;;24.40;13.90;;;;;;;-1.60;70.21;98012.91;5099005;27;46276;-78
2021/01/10 05:41:58;;;;;;;24.17;13.98;;;;;;;-1.78;70.96;98014.75;5086647;27;45296;-77
2021/01/10 05:44:25;;;;;;;25.67;14.95;;;;;;;-1.64;70.92;98019.22;5098831;27;45256;-77
2021/01/10 05:47:06;;;;;;;25.55;14.30;;;;;;;-1.60;71.21;98017.28;5098843;27;45288;-77
2021/01/10 05:49:32;;;;;;;28.15;14.75;;;;;;;-1.96;71.98;98017.44;5098666;27;46054;-77
2021/01/10 05:52:07;;;;;;;23.00;13.15;;;;;;;-2.26;73.47;98015.56;5098550;27;45295;-77
2021/01/10 05:54:40;;;;;;;24.63;14.18;;;;;;;-1.80;71.78;98017.44;5098970;27;45232;-77
2021/01/10 05:57:24;;;;;;;23.98;13.73;;;;;;;-1.78;71.71;98015.59;5098696;27;45365;-77
2021/01/10 05:59:54;;;;;;;24.60;14.30;;;;;;;-1.69;71.67;98009.06;5083217;27;46421;-78
2021/01/10 06:02:35;;;;;;;25.27;13.93;;;;;;;-1.67;70.24;98016.78;5098397;27;45425;-77
2021/01/10 06:05:26;;;;;;;24.23;13.50;;;;;;;-1.68;71.72;98008.13;5090347;27;45496;-78
2021/01/10 06:07:52;;;;;;;27.02;15.13;;;;;;;-1.56;70.52;98016.19;5092799;27;47037;-77
2021/01/10 06:10:26;;;;;;;23.73;14.68;;;;;;;-1.85;72.63;98018.63;5090433;27;45571;-77
2021/01/10 06:13:01;;;;;;;23.63;13.48;;;;;;;-2.53;73.96;98015.22;5085068;27;45555;-77
2021/01/10 06:15:31;;;;;;;27.45;14.95;;;;;;;-1.98;73.34;98015.84;5097821;27;45533;-78
2021/01/10 06:18:01;;;;;;;29.73;17.20;;;;;;;-2.36;75.01;98023.00;5097955;27;45462;-77
2021/01/10 06:20:28;;;;;;;27.00;16.05;;;;;;;-2.51;76.38;98024.66;5097840;27;45494;-77
2021/01/10 06:22:58;;;;;;;29.13;16.52;;;;;;;-2.06;74.24;98024.94;5097491;27;45403;-77
2021/01/10 06:25:38;;;;;;;29.45;16.55;;;;;;;-2.30;76.76;98029.66;5097936;27;45264;-78
2021/01/10 06:28:11;;;;;;;30.25;17.95;;;;;;;-2.06;75.22;98029.28;5097698;27;45386;-77
2021/01/10 06:30:41;;;;;;;26.00;15.68;;;;;;;-2.48;75.39;98033.22;5097452;27;45315;-77
2021/01/10 06:33:11;;;;;;;28.35;17.30;;;;;;;-2.06;76.71;98024.94;5096335;27;45190;-77
2021/01/10 06:35:41;;;;;;;26.77;15.75;;;;;;;-1.80;74.66;98030.47;5097903;27;45485;-77
2021/01/10 06:38:08;;;;;;;31.93;16.63;;;;;;;-1.82;74.59;98028.88;5084358;27;45340;-77
2021/01/10 06:40:36;;;;;;;30.27;17.02;;;;;;;-2.82;78.86;98026.19;5097453;27;46393;-78
2021/01/10 06:43:03;;;;;;;32.28;17.88;;;;;;;-2.94;80.33;98032.88;5096254;27;45923;-77
2021/01/10 06:45:39;;;;;;;29.70;17.17;;;;;;;-2.38;77.36;98045.69;5097346;27;45308;-77
2021/01/10 06:48:09;;;;;;;27.70;16.58;;;;;;;-2.14;76.17;98036.66;5097939;27;45416;-77
2021/01/10 06:50:35;;;;;;;31.70;18.00;;;;;;;-2.39;78.08;98038.78;5097363;27;45216;-77
2021/01/10 06:53:11;;;;;;;29.92;17.15;;;;;;;-2.16;77.22;98039.38;5097518;27;45409;-79
2021/01/10 06:55:38;;;;;;;30.27;17.13;;;;;;;-2.04;76.56;98039.63;5096321;27;45410;-78
2021/01/10 06:58:08;;;;;;;35.72;22.42;;;;;;;-2.80;80.12;98050.41;5097506;27;45293;-77
2021/01/10 07:01:06;;;;;;;32.70;19.50;;;;;;;-2.18;77.12;98053.38;5089362;27;46568;-77
2021/01/10 07:03:31;;;;;;;30.90;18.90;;;;;;;-2.64;80.22;98050.47;5069535;27;45838;-77
2021/01/10 07:05:57;;;;;;;30.02;17.45;;;;;;;-2.37;78.61;98054.34;5100412;27;45358;-78
2021/01/10 07:08:41;;;;;;;35.90;19.60;;;;;;;-2.58;78.35;98056.28;5100910;27;45481;-78
2021/01/10 07:11:21;;;;;;;32.88;19.13;;;;;;;-2.70;80.67;98057.75;5087930;27;46199;-76
2021/01/10 07:13:48;;;;;;;34.95;18.92;;;;;;;-2.30;78.14;98060.94;5100502;27;45399;-76
2021/01/10 07:16:18;;;;;;;32.97;19.58;;;;;;;-2.50;78.68;98068.00;5100683;27;45455;-74
2021/01/10 07:18:55;;;;;;;39.03;20.58;;;;;;;-2.07;76.59;98064.94;5100867;27;45485;-75
2021/01/10 07:21:34;;;;;;;34.40;18.95;;;;;;;-1.99;77.09;98071.50;5092399;27;46320;-75
2021/01/10 07:24:21;;;;;;;32.25;18.73;;;;;;;-1.81;75.76;98075.75;5088780;27;45393;-75
2021/01/10 07:26:57;;;;;;;32.85;19.42;;;;;;;-2.76;78.58;98084.94;5097251;27;45410;-75
2021/01/10 07:29:28;;;;;;;35.15;20.63;;;;;;;-2.26;77.58;98078.09;5098507;27;45505;-75
2021/01/10 07:32:04;;;;;;;33.47;19.45;;;;;;;-2.03;77.27;98083.84;5088238;27;45374;-75
2021/01/10 07:34:31;;;;;;;32.80;18.80;;;;;;;-1.83;76.49;98092.38;5095143;27;45775;-75
2021/01/10 07:36:59;;;;;;;30.48;18.60;;;;;;;-2.40;80.14;98081.38;5094941;27;45534;-74
2021/01/10 07:39:27;;;;;;;31.77;18.73;;;;;;;-2.23;78.83;98095.31;5099862;27;45306;-75
2021/01/10 07:42:16;;;;;;;32.80;18.30;;;;;;;-2.50;79.91;98104.47;5099126;27;45575;-75
2021/01/10 07:44:49;;;;;;;32.60;17.73;;;;;;;-2.43;80.14;98107.59;5093239;27;45520;-78
2021/01/10 07:47:15;;;;;;;30.02;17.23;;;;;;;-2.47;79.36;98119.09;5091378;27;45541;-79
2021/01/10 07:49:52;;;;;;;33.83;18.27;;;;;;;-2.78;81.12;98110.22;5089765;27;45423;-78
2021/01/10 07:52:37;;;;;;;31.48;17.08;;;;;;;-2.88;80.78;98117.63;5090539;27;45498;-78
2021/01/10 07:55:03;;;;;;;31.67;18.65;;;;;;;-2.22;78.59;98117.84;5096595;27;45552;-79
2021/01/10 07:57:32;;;;;;;32.88;19.17;;;;;;;-2.57;79.59;98123.06;5098342;27;45465;-78
2021/01/10 08:00:24;;;;;;;30.60;18.42;;;;;;;-2.75;80.51;98117.00;5086879;27;45496;-78
2021/01/10 08:02:59;;;;;;;37.38;20.67;;;;;;;-2.28;79.58;98123.38;5086892;27;46423;-77
2021/01/10 08:05:25;;;;;;;34.35;19.20;;;;;;;-2.59;79.43;98132.72;5086787;27;45486;-77
2021/01/10 08:08:14;;;;;;;35.30;21.48;;;;;;;-2.80;80.51;98131.09;5089651;27;45513;-78
2021/01/10 08:10:52;;;;;;;35.60;20.38;;;;;;;-2.47;79.77;98134.72;5065296;27;45523;-79
2021/01/10 08:13:30;;;;;;;36.55;20.17;;;;;;;-2.04;78.18;98129.09;5097288;27;47301;-87
2021/01/10 08:15:57;;;;;;;34.17;20.00;;;;;;;-1.82;76.26;98126.19;5097410;27;45518;-82
2021/01/10 08:18:24;;;;;;;37.10;20.90;;;;;;;-1.97;76.53;98125.22;5088330;27;45509;-84
2021/01/10 08:20:56;;;;;;;32.70;20.63;;;;;;;-1.79;76.72;98133.84;5098220;27;45549;-81
2021/01/10 08:23:23;;;;;;;44.63;25.48;;;;;;;-1.76;76.34;98130.25;5098734;27;45360;-81
2021/01/10 08:25:51;;;;;;;37.85;23.63;;;;;;;-1.92;77.17;98135.44;5098173;27;45367;-80
2021/01/10 08:28:18;;;;;;;40.45;23.13;;;;;;;-2.00;78.26;98142.81;5099244;27;45356;-82
2021/01/10 08:30:45;;;;;;;34.50;20.02;;;;;;;-2.26;80.26;98142.38;5091557;27;45673;-82
2021/01/10 08:33:20;;;;;;;34.50;20.75;;;;;;;-2.00;78.38;98141.03;5091498;27;45467;-80
2021/01/10 08:35:48;;;;;;;34.60;20.27;;;;;;;-2.38;80.83;98136.84;5094303;27;45418;-82
2021/01/10 08:38:15;;;;;;;35.20;21.35;;;;;;;-2.41;80.95;98144.00;5094327;27;45472;-83
2021/01/10 08:40:41;;;;;;;41.78;26.95;;;;;;;-1.87;78.50;98149.06;5087519;27;45403;-81
2021/01/10 08:43:07;;;;;;;36.55;21.25;;;;;;;-1.97;78.30;98148.69;5092072;27;45411;-84
2021/01/10 08:45:32;;;;;;;35.10;20.73;;;;;;;-2.11;79.51;98145.97;5092121;27;45318;-81
2021/01/10 08:48:03;;;;;;;39.83;21.52;;;;;;;-2.08;80.30;98153.63;5094973;27;45510;-80
2021/01/10 08:50:38;;;;;;;41.58;21.75;;;;;;;-1.89;78.35;98156.13;5097665;27;45543;-80
2021/01/10 08:53:03;;;;;;;38.53;21.42;;;;;;;-1.85;78.25;98165.47;5094179;27;46193;-79
2021/01/10 08:55:41;;;;;;;36.15;21.05;;;;;;;-1.60;76.61;98152.91;5093597;27;45549;-83
2021/01/10 08:58:08;;;;;;;44.88;22.30;;;;;;;-1.58;75.61;98164.94;5098176;27;45474;-79
2021/01/10 09:00:39;;;;;;;41.38;22.85;;;;;;;-1.52;76.02;98162.00;5094854;27;45468;-80
2021/01/10 09:03:14;;;;;;;37.38;21.63;;;;;;;-1.43;75.50;98162.41;5091827;27;45549;-79
2021/01/10 09:05:40;;;;;;;30.80;18.38;;;;;;;-1.52;75.91;98167.22;5087495;27;45533;-79
2021/01/10 09:08:13;;;;;;;37.28;22.05;;;;;;;-1.46;74.92;98166.06;5090141;27;45598;-79
2021/01/10 09:10:51;;;;;;;40.17;23.30;;;;;;;-1.59;76.21;98170.25;5094837;27;45557;-81
2021/01/10 09:13:18;;;;;;;42.28;22.75;;;;;;;-1.48;75.98;98171.34;5094035;27;46956;-79
2021/01/10 09:15:46;;;;;;;47.05;26.02;;;;;;;-1.39;75.69;98177.00;5090287;27;45402;-77
2021/01/10 09:18:20;;;;;;;38.35;22.27;;;;;;;-1.37;74.52;98176.00;5090870;27;45613;-76
2021/01/10 09:20:51;;;;;;;30.55;18.80;;;;;;;-1.29;74.77;98175.59;5091794;27;45567;-76
2021/01/10 09:23:18;;;;;;;30.60;18.58;;;;;;;-1.29;73.92;98180.81;5085293;27;45528;-79
2021/01/10 09:25:43;;;;;;;35.67;20.27;;;;;;;-1.29;73.55;98169.50;5091149;27;45471;-78
2021/01/10 09:28:17;;;;;;;34.97;19.95;;;;;;;-1.29;73.38;98169.50;5086285;27;45554;-84
2021/01/10 09:30:44;;;;;;;37.53;21.48;;;;;;;-1.35;74.10;98166.31;5097829;27;45336;-82
2021/01/10 09:33:11;;;;;;;34.72;20.42;;;;;;;-1.50;74.69;98175.78;5111866;27;46823;-82
2021/01/10 09:35:45;;;;;;;38.28;21.65;;;;;;;-1.35;74.97;98175.91;5095952;27;45509;-81
2021/01/10 09:38:16;;;;;;;35.25;21.13;;;;;;;-1.30;75.07;98186.97;5091720;27;45655;-82
2021/01/10 09:41:01;;;;;;;32.78;18.83;;;;;;;-1.24;73.76;98178.78;5097164;27;45510;-84
2021/01/10 09:43:36;;;;;;;34.53;19.48;;;;;;;-1.39;73.20;98195.25;5096948;27;45409;-82
2021/01/10 09:46:02;;;;;;;36.50;20.90;;;;;;;-1.34;73.56;98185.41;5087155;27;45397;-83
2021/01/10 09:48:27;;;;;;;33.33;19.55;;;;;;;-1.26;73.80;98190.22;5094419;27;45411;-81
2021/01/10 09:50:53;;;;;;;30.27;18.85;;;;;;;-1.22;73.61;98184.78;5085300;27;45427;-81
2021/01/10 09:53:25;;;;;;;33.88;20.13;;;;;;;-1.16;73.72;98183.56;5096781;27;45338;-83
2021/01/10 09:55:50;;;;;;;33.28;19.65;;;;;;;-1.18;73.09;98180.22;5090680;27;45765;-83
2021/01/10 09:58:16;;;;;;;31.85;18.85;;;;;;;-1.60;75.82;98185.03;5096248;27;45627;-82
2021/01/10 10:01:08;;;;;;;33.85;20.17;;;;;;;-1.65;75.43;98185.28;5094733;27;45479;-83
2021/01/10 10:03:36;;;;;;;33.15;19.05;;;;;;;-1.41;74.50;98186.66;5086569;27;45370;-82
2021/01/10 10:06:01;;;;;;;33.83;18.17;;;;;;;-1.59;75.05;98186.72;5093601;27;45459;-85
2021/01/10 10:08:27;;;;;;;30.80;17.83;;;;;;;-1.43;74.05;98180.69;5096959;27;45383;-83
2021/01/10 10:10:52;;;;;;;41.20;28.23;;;;;;;-1.69;76.10;98183.78;5090637;27;45562;-82
2021/01/10 10:13:27;;;;;;;36.58;19.80;;;;;;;-1.40;74.59;98185.75;5097099;27;45474;-81
2021/01/10 10:15:54;;;;;;;34.13;20.02;;;;;;;-1.36;74.08;98187.25;5093220;27;45493;-81
2021/01/10 10:18:21;;;;;;;39.33;21.85;;;;;;;-1.69;75.43;98183.78;5095217;27;45418;-81
2021/01/10 10:20:47;;;;;;;55.05;28.55;;;;;;;-1.20;74.75;98182.91;5097711;27;45247;-78
2021/01/10 10:23:14;;;;;;;39.50;21.50;;;;;;;-1.01;73.83;98184.50;5096438;27;45450;-76
2021/01/10 10:25:41;;;;;;;30.10;16.95;;;;;;;-0.97;72.69;98182.56;5089973;27;45362;-74
2021/01/10 10:28:07;;;;;;;27.67;16.63;;;;;;;-1.08;72.86;98185.78;5095462;27;45513;-75
2021/01/10 10:30:33;;;;;;;27.95;17.00;;;;;;;-1.03;71.86;98183.75;5096431;27;45549;-74
2021/01/10 10:33:00;;;;;;;34.00;19.40;;;;;;;-0.97;73.15;98185.16;5095527;27;46010;-75
2021/01/10 10:35:25;;;;;;;28.52;17.20;;;;;;;-0.94;72.80;98185.84;5096840;27;45492;-75
2021/01/10 10:37:51;;;;;;;27.52;17.10;;;;;;;-0.92;71.27;98186.63;5096683;27;45544;-74
2021/01/10 10:40:18;;;;;;;33.38;18.80;;;;;;;-0.96;72.41;98187.72;5099663;27;45377;-74
2021/01/10 10:42:43;;;;;;;31.50;18.10;;;;;;;-0.97;71.77;98186.03;5098807;27;45498;-74
2021/01/10 10:45:09;;;;;;;32.25;17.80;;;;;;;-0.83;71.40;98192.25;5095335;27;45530;-74
2021/01/10 10:47:35;;;;;;;29.08;16.10;;;;;;;-0.80;70.90;98192.06;5094332;27;45383;-74
2021/01/10 10:50:01;;;;;;;31.17;17.08;;;;;;;-0.79;70.88;98191.16;5094839;27;45560;-79
2021/01/10 10:52:27;;;;;;;35.80;20.92;;;;;;;-0.74;70.75;98187.38;5094485;27;45551;-78
2021/01/10 10:54:52;;;;;;;29.13;16.60;;;;;;;-0.79;70.12;98185.94;5101157;27;45289;-81
2021/01/10 10:57:17;;;;;;;30.05;17.20;;;;;;;-1.11;71.28;98178.13;5100577;27;45461;-81
2021/01/10 10:59:43;;;;;;;28.95;16.75;;;;;;;-0.95;70.87;98172.88;5098211;27;46587;-82
2021/01/10 11:02:12;;;;;;;31.20;16.50;;;;;;;-0.75;70.22;98169.16;5100134;27;46291;-82
2021/01/10 11:04:39;;;;;;;31.13;16.75;;;;;;;-0.72;70.36;98178.59;5094992;27;45401;-85
2021/01/10 11:07:06;;;;;;;34.08;17.42;;;;;;;-0.70;70.08;98161.91;5100661;27;45472;-83
2021/01/10 11:09:31;;;;;;;26.85;16.58;;;;;;;-0.94;70.78;98169.34;5100930;27;45362;-81
2021/01/10 11:11:57;;;;;;;27.48;16.42;;;;;;;-0.68;70.51;98165.25;5098531;27;45584;-82
2021/01/10 11:14:22;;;;;;;28.35;17.13;;;;;;;-0.60;69.06;98168.28;5092479;27;45467;-82
2021/01/10 11:16:50;;;;;;;37.90;22.35;;;;;;;-1.12;71.46;98161.59;5096086;27;45327;-84
2021/01/10 11:19:15;;;;;;;31.70;18.42;;;;;;;-0.61;70.96;98161.38;5101054;27;45378;-83
2021/01/10 11:21:43;;;;;;;31.10;16.85;;;;;;;-0.52;69.42;98164.38;5099629;27;46164;-83
2021/01/10 11:24:10;;;;;;;30.15;17.58;;;;;;;-0.59;68.82;98162.13;5100239;27;45438;-81
2021/01/10 11:26:42;;;;;;;27.58;15.48;;;;;;;-0.49;69.33;98158.97;5097500;27;45299;-86